sensor_id;sensor_type;location;lat;lon;timestamp;temperature;humidity
31687;DHT22;18285;51.330;4.946;2023-12-14T00:09:39;23.90;40.70
31687;DHT22;18285;51.330;4.946;2023-12-14T00:33:49;23.90;40.50
31687;DHT22;18285;51.330;4.946;2023-12-14T00:58:00;23.90;39.90
31687;DHT22;18285;51.330;4.946;2023-12-14T01:22:11;23.80;39.80
31687;DHT22;18285;51.330;4.946;2023-12-14T01:46:21;23.80;39.90
31687;DHT22;18285;51.330;4.946;2023-12-14T02:10:32;23.70;39.50
31687;DHT22;18285;51.330;4.946;2023-12-14T02:34:43;23.70;39.80
31687;DHT22;18285;51.330;4.946;2023-12-14T02:58:54;23.80;38.30
31687;DHT22;18285;51.330;4.946;2023-12-14T03:23:04;23.70;38.80
31687;DHT22;18285;51.330;4.946;2023-12-14T03:47:15;23.70;38.70
31687;DHT22;18285;51.330;4.946;2023-12-14T04:11:26;23.70;38.50
31687;DHT22;18285;51.330;4.946;2023-12-14T04:35:37;23.70;38.60
31687;DHT22;18285;51.330;4.946;2023-12-14T04:59:47;23.70;38.00
31687;DHT22;18285;51.330;4.946;2023-12-14T05:23:58;23.70;37.50
31687;DHT22;18285;51.330;4.946;2023-12-14T05:48:09;23.60;37.80
31687;DHT22;18285;51.330;4.946;2023-12-14T06:12:20;23.50;38.20
31687;DHT22;18285;51.330;4.946;2023-12-14T06:36:31;23.60;36.70
31687;DHT22;18285;51.330;4.946;2023-12-14T07:00:42;23.60;38.70
31687;DHT22;18285;51.330;4.946;2023-12-14T07:24:52;23.60;37.40
31687;DHT22;18285;51.330;4.946;2023-12-14T07:49:03;23.50;37.50
31687;DHT22;18285;51.330;4.946;2023-12-14T08:13:14;23.50;37.20
31687;DHT22;18285;51.330;4.946;2023-12-14T08:37:25;23.50;37.30
31687;DHT22;18285;51.330;4.946;2023-12-14T09:01:36;23.50;36.00
31687;DHT22;18285;51.330;4.946;2023-12-14T09:25:46;23.50;35.40
31687;DHT22;18285;51.330;4.946;2023-12-14T09:49:58;23.50;35.60
31687;DHT22;18285;51.330;4.946;2023-12-14T10:14:24;23.50;35.00
31687;DHT22;18285;51.330;4.946;2023-12-14T10:38:37;23.40;36.60
31687;DHT22;18285;51.330;4.946;2023-12-14T11:02:48;23.50;36.10
31687;DHT22;18285;51.330;4.946;2023-12-14T11:26:59;23.50;37.00
31687;DHT22;18285;51.330;4.946;2023-12-14T11:51:15;23.60;35.90
31687;DHT22;18285;51.330;4.946;2023-12-14T12:15:26;23.50;35.80
31687;DHT22;18285;51.330;4.946;2023-12-14T12:39:37;23.50;36.00
31687;DHT22;18285;51.330;4.946;2023-12-14T13:03:53;23.60;35.60
31687;DHT22;18285;51.330;4.946;2023-12-14T13:28:05;23.60;34.60
31687;DHT22;18285;51.330;4.946;2023-12-14T13:52:15;23.40;37.00
31687;DHT22;18285;51.330;4.946;2023-12-14T14:16:26;23.40;35.60
31687;DHT22;18285;51.330;4.946;2023-12-14T14:40:37;23.40;35.40
31687;DHT22;18285;51.330;4.946;2023-12-14T15:04:50;23.50;35.30
31687;DHT22;18285;51.330;4.946;2023-12-14T15:29:00;23.50;35.50
31687;DHT22;18285;51.330;4.946;2023-12-14T15:53:11;23.50;35.70
31687;DHT22;18285;51.330;4.946;2023-12-14T16:17:22;23.30;35.80
31687;DHT22;18285;51.330;4.946;2023-12-14T16:41:33;23.40;36.60
31687;DHT22;18285;51.330;4.946;2023-12-14T17:05:44;23.40;38.10
31687;DHT22;18285;51.330;4.946;2023-12-14T17:29:54;23.40;38.80
31687;DHT22;18285;51.330;4.946;2023-12-14T17:54:05;23.40;37.40
31687;DHT22;18285;51.330;4.946;2023-12-14T18:18:17;23.40;38.20
31687;DHT22;18285;51.330;4.946;2023-12-14T19:06:45;23.30;37.70
31687;DHT22;18285;51.330;4.946;2023-12-14T19:30:56;23.30;38.50
31687;DHT22;18285;51.330;4.946;2023-12-14T19:55:07;23.60;38.80
31687;DHT22;18285;51.330;4.946;2023-12-14T20:19:20;24.00;37.50
31687;DHT22;18285;51.330;4.946;2023-12-14T20:43:31;24.50;37.00
31687;DHT22;18285;51.330;4.946;2023-12-14T21:07:42;24.70;36.90
31687;DHT22;18285;51.330;4.946;2023-12-14T21:31:53;25.00;37.40
31687;DHT22;18285;51.330;4.946;2023-12-14T21:56:04;25.40;37.10
31687;DHT22;18285;51.330;4.946;2023-12-14T22:20:14;25.90;36.70
31687;DHT22;18285;51.330;4.946;2023-12-14T22:44:25;26.40;36.00
31687;DHT22;18285;51.330;4.946;2023-12-14T23:08:36;26.80;35.70
31687;DHT22;18285;51.330;4.946;2023-12-14T23:32:46;27.10;35.00
31687;DHT22;18285;51.330;4.946;2023-12-14T23:56:57;27.40;33.90
